Regional Weather Synopsis
Issued by NWS Denver/Boulder, CO

Home | Current Version | Previous Version | Text Only | Print | Product List | Glossary On
Versions: 1 2 3 4 5 6 7 8 9 10 11 12 13 14 15 16 17 18 19 20 21 22 23 24 25 26 27 28 29 30 31 32 33 34 35 36 37 38 39 40 41 42 43 44 45 46 47 48 49 50
000
NZUS99 KBOU 070248
SYNBOU

Hot-Air Balloon Forecast for Colorado
National Weather Service Denver/Boulder, Colorado
1945 MST Friday, December 6, 2019


* * * * * Northeast Colorado * * * * *

METAR KFNL 070156Z AUTO 20003KT 10SM CLR M01/M02 A3022 RMK AO2 SLP263
       T10111022 FZRANO
METAR KFNL 070056Z AUTO 00000KT 10SM CLR M01/M03 A3021 RMK AO2 SLP260
       T10111028 FZRANO
METAR KFNL 062356Z AUTO 15005KT 9SM CLR 00/M01 A3022 RMK AO2 SLP256
       T00001011 10072 20000 53004 FZRANO

METAR KGXY 070156Z AUTO 00000KT 5SM BR CLR M05/M06 A3023 RMK AO2 SLP291
       T10501056 FZRANO
SPECI KGXY 070124Z AUTO 05004KT 3SM BR FEW001 M04/M04 A3023 RMK AO2
       FZRANO
SPECI KGXY 070120Z AUTO 04005KT 1 1/4SM BR FEW001 M04/M04 A3023 RMK AO2
       FZRANO

METAR KLMO 070235Z AUTO 26005KT 7SM CLR M02/M04 A3023 RMK AO2
       T10211039
METAR KLMO 070215Z AUTO 00000KT 7SM CLR M01/M02 A3023 RMK AO2
       T10061025
METAR KLMO 070155Z AUTO 26003KT 10SM CLR 00/M02 A3023 RMK AO2
       T00001018

METAR KBDU 070230Z AUTO 16004KT 10SM CLR 00/00 A3020 RMK AO2
METAR KBDU 070212Z AUTO 00000KT 10SM CLR 00/00 A3020 RMK AO2
METAR KBDU 070148Z AUTO 00000KT 10SM CLR 01/00 A3021 RMK AO2

METAR KEIK 070236Z AUTO 00000KT 7SM CLR M02/M03 A3026 RMK AO2
       T10201027
METAR KEIK 070218Z AUTO 00000KT 10SM CLR M02/M03 A3027 RMK AO2
       T10201026
METAR KEIK 070153Z AUTO 21004KT 10SM CLR M02/M03 A3027 RMK AO2
       T10181026

KBJC 062320Z 0700/0724 29006KT P6SM FEW220
     FM070300 28008KT P6SM SCT220
     FM072100 28014KT P6SM FEW220
METAR KBJC 070147Z 32005KT 20SM SKC 03/00 A3021
METAR KBJC 070045Z 00000KT 20SM SKC 04/01 A3021
METAR KBJC 062347Z 00000KT 20SM FEW060 05/01 A3021

KDEN 070102Z 0701/0806 14009KT P6SM FEW090 FEW220
     FM070500 20008KT P6SM FEW220
     FM071500 23010KT P6SM FEW220
     FM071900 25008KT P6SM FEW220
     FM072100 28009KT P6SM FEW220
     FM080100 25007KT P6SM SCT220
METAR KDEN 070153Z 13005KT 10SM FEW090 M01/M02 A3020 RMK AO2 SLP248
       T10111022
METAR KDEN 070053Z 16009KT 10SM FEW090 FEW220 01/M01 A3020 RMK AO2
       SLP242 T00111006
METAR KDEN 062353Z 13007KT 10SM FEW090 FEW220 02/01 A3020 RMK AO2 SLP239
       T00220011 10061 20017 50001

METAR KFTG 070153Z 17009KT 10SM FEW220 02/M01 A3022
METAR KFTG 070052Z 14008KT 10SM FEW220 02/00 A3022
METAR KFTG 062348Z 13005KT 10SM FEW220 03/02 A3021

KBKF 070100Z 0701/0807 16009KT 9999 FEW200 QNH2997INS
     BECMG 0720/0721 25012KT 9999 SCT200 QNH2992INS TX06/0721Z
     TNM07/0709Z
METAR KBKF 070158Z 20006KT 10SM CLR 01/M03 A3021 RMK AO2A SLP248
       T00101026
METAR KBKF 070058Z 14007KT 10SM CLR 03/M01 A3021 RMK AO2A SLP243
       T00251015

KAPA 062320Z 0700/0724 05006KT P6SM FEW080 SCT220
     FM070100 18008KT P6SM FEW220
     FM071400 24007KT P6SM SCT220
     FM071900 25008KT P6SM FEW220
     FM072100 28009KT P6SM FEW220
METAR KAPA 070153Z 17006KT 10SM CLR 03/M02 A3021 RMK AO2 SLP254
       T00331022 $
METAR KAPA 070053Z 19005KT 10SM CLR 03/M03 A3021 RMK AO2 SLP251
       T00331028 $
METAR KAPA 062353Z 16005KT 10SM FEW100 08/M03 A3020 RMK AO2 SLP241
       T00781028 10106 20056 53003 $

METAR KMNH 070230Z AUTO 19008KT 10SM CLR M02/M04 A3025 RMK AO2
METAR KMNH 070212Z AUTO 19009KT 10SM CLR M02/M04 A3025 RMK AO2
METAR KMNH 070148Z AUTO 19008KT 10SM CLR M02/M04 A3025 RMK AO2


METAR KSTK 070230Z AUTO 19004KT 5SM BR CLR M02/M02 A3020 RMK AO2
METAR KSTK 070210Z AUTO 00000KT 5SM BR CLR M01/M01 A3021 RMK AO2
METAR KSTK 070150Z AUTO 22003KT 5SM BR CLR M01/M01 A3021 RMK AO2

METAR KAKO 070153Z AUTO 28006KT 6SM BR CLR M01/M02 A3020 RMK AO2 SLP262
       T10061022 $
METAR KAKO 070053Z AUTO 29005KT 8SM CLR 00/M02 A3020 RMK AO2 SLP257
       T00001017 $
METAR KAKO 062353Z AUTO 32004KT 10SM CLR 01/M02 A3020 RMK AO2 SLP258
        T00111017 10078 20011 $

METAR KLIC 070155Z AUTO 00000KT 10SM CLR M04/M04 A3025 RMK AO2 SLP282
       T10391044
METAR KLIC 070055Z AUTO 18006KT 10SM CLR M01/M03 A3024 RMK AO2 SLP271
       T10061028
METAR KLIC 062355Z AUTO 16005KT 10SM CLR 01/M02 A3024 RMK AO2 SLP265
       T00061022 10072 20006 53004

METAR KHEQ 070230Z AUTO 28005KT 10SM CLR 01/M01 A3021 RMK AO2
METAR KHEQ 070210Z AUTO 27006KT 10SM CLR 01/M01 A3021 RMK AO2
METAR KHEQ 070150Z AUTO 29005KT 10SM CLR 01/M01 A3021 RMK AO2

METAR K2V6 070234Z AUTO 28005KT 10SM CLR 00/M02 A3021 RMK AO2
METAR K2V6 070214Z AUTO 28007KT 10SM CLR M01/M03 A3022 RMK AO2
METAR K2V6 070154Z AUTO 27006KT 10SM CLR 00/M02 A3022 RMK AO2

METAR K2V5 070235Z AUTO 30007KT 10SM CLR 01/00 A3023 RMK AO2
METAR K2V5 070215Z AUTO 27007KT 10SM CLR 01/M01 A3023 RMK AO2
METAR K2V5 070155Z AUTO 28005KT 10SM CLR 02/00 A3023 RMK AO2

METAR KITR 070153Z AUTO 23007KT 10SM CLR M01/M04 A3025 RMK AO2 SLP267
       T10111039
METAR KITR 070053Z AUTO 21010KT 10SM CLR 02/M02 A3024 RMK AO2 SLP260
       T00171017
METAR KITR 062353Z AUTO 20011KT 10SM CLR 03/M02 A3024 RMK AO2 SLP256
       T00281017 10100 20011 50001

Sunrise/Sunset for 12/06/2019
Fort Collins - 07:09:23 MST / 16:33:15 MST
Denver       - 07:06:32 MST / 16:35:15 MST
Sterling     - 07:02:15 MST / 16:25:33 MST

Denver/Boulder (KFTG) 12/07/19 02:32 UTC
Radar VAD winds      Height      Dir/Spd(kt)
                   8100 FT MSL...060/003
                   8000 FT MSL...105/005
                   6600 FT MSL...053/020

Denver/Boulder Aviation Discussion
Issued at 0218 UTC Saturday, December  7, 2019

.AVIATION...(For the 00Z TAFS through 00Z Saturday evening)
Issued at 716 PM MST Fri Dec 6 2019
No aviation impacts expected tonight or Saturday. Skies will be
clear or mostly clear. Winds will be mostly out of the south, at
speeds less than 10 knots. With the drainage wind overnight,
expect the fog to remain north and northeast of Denver overnight.
Consequently no fog is mentioned in the terminals at this time. If
the wind starts to shift west/northwest later, then could see
some patchy fog impact KBJC and KDEN. Confidence in this is low,
so will keep it out of the tafs for now.


* * * * * Southeast Colorado * * * * *

METAR K4BM 070229Z AUTO 26007KT 10SM CLR M03/M10 A3038 RMK AO2
METAR K4BM 070211Z AUTO 25007KT 10SM CLR M02/M10 A3039 RMK AO2
METAR K4BM 070154Z AUTO 25007KT 10SM CLR M02/M10 A3039 RMK AO2

METAR KAFF 070158Z AUTO 02004KT 10SM CLR M03/M05 A3024 RMK AO2 SLP276
       T10331049
METAR KAFF 070058Z AUTO 34005KT 10SM CLR M01/M04 A3024 RMK AO2 SLP270
       T10071039

KCOS 062321Z 0700/0724 15006KT P6SM FEW250
     FM070500 02007KT P6SM SKC
     FM071500 20006KT P6SM SKC
     FM072000 26010KT P6SM SCT200
METAR KCOS 070154Z 00000KT 10SM CLR 03/M02 A3027 RMK AO2 SLP270
       T00281022
METAR KCOS 070054Z 13003KT 10SM CLR 02/M03 A3026 RMK AO2 SLP271
       T00221028
METAR KCOS 062354Z 12003KT 10SM FEW240 03/M02 A3025 RMK AO2 SLP264
       T00331022 10067 20028 51005


METAR KFLY 070235Z AUTO 28011G14KT 10SM CLR 00/M02 A3026 RMK AO2
       T10011021
METAR KFLY 070215Z AUTO 27015KT 10SM CLR 00/M02 A3027 RMK AO2
       T10041022
METAR KFLY 070155Z AUTO 28007KT 10SM CLR M01/M03 A3027 RMK AO2
       T10141030

KFCS 062100Z 0621/0803 VRB06KT 9999 SKC QNH3005INS
     BECMG 0716/0717 26012KT 9999 FEW220 QNH2999INS TX09/0622Z
     TNM04/0711Z
METAR KFCS 070158Z AUTO 25004KT 6SM HZ CLR 02/M02 A3025 RMK AO2 SLP288
       T00231020 $
SPECI KFCS 070143Z AUTO 25005KT 2 1/2SM HZ CLR 03/M02 A3025 RMK AO2
        VIS 2 1/2V6 SLP288 $
SPECI KFCS 070128Z AUTO 00000KT 4SM HZ CLR 03/M02 A3024 RMK AO2 SLP284
       $

KPUB 062321Z 0700/0724 11008KT P6SM FEW150 SCT250
     FM070200 31006KT P6SM FEW250
     FM070700 27006KT P6SM SKC
     FM071900 29012KT P6SM FEW250
METAR KPUB 070153Z VRB04KT 10SM CLR 01/M02 A3025 RMK AO2 SLP269
       T00111022
METAR KPUB 070053Z 36008KT 10SM CLR 02/M02 A3024 RMK AO2 SLP262
       T00221017
METAR KPUB 062353Z AUTO 02007KT 10SM CLR 03/M01 A3023 RMK AO2 SLP254
       T00331011 10100 20033 53006

METAR KVTP 070240Z AUTO 25015KT 10SM CLR M05/M07 A3035 RMK AO2
METAR KVTP 070217Z AUTO 26014G18KT 10SM CLR M05/M07 A3036 RMK AO2
METAR KVTP 070200Z AUTO 26013G18KT 10SM CLR M05/M07 A3036 RMK AO2

METAR KTAD 070154Z AUTO 30008KT 10SM CLR 04/M02 A3025 RMK AO2 SLP250
       T00391017
METAR KTAD 070054Z AUTO 25006KT 10SM CLR 05/M02 A3023 RMK AO2 SLP239
       T00501017
METAR KTAD 062354Z AUTO 28006KT 10SM CLR 07/M02 A3022 RMK AO2 SLP228
       T00721022 10122 20072 53004

METAR KLHX 070153Z AUTO 36008KT 10SM CLR M01/M03 A3023 RMK AO2 SLP258
       T10111033
METAR KLHX 070053Z AUTO 02007KT 10SM CLR 01/M02 A3022 RMK AO2 SLP254
       T00111022
METAR KLHX 062353Z AUTO 05008KT 10SM CLR 04/M01 A3022 RMK AO2 SLP244
       T00391011 10128 20039 53003

SPECI KLAA 070240Z AUTO 08008KT 3/4SM BR VV001 M01/M02 A3023 RMK AO2
       I1001 T10111017
SPECI KLAA 070236Z AUTO 08008KT 1 1/4SM BR BKN001 M01/M02 A3023 RMK AO2
       I1000 T10111017
SPECI KLAA 070231Z AUTO 08007KT 2 1/2SM BR BKN001 M01/M02 A3023 RMK AO2
       I1000 T10111017

METAR KSPD 070156Z AUTO 19010KT 01/M02 A3025 RMK AO1 SLP259
       T00111017
METAR KSPD 070056Z AUTO 17009KT 02/M02 A3025 RMK AO1 SLP257
       T00171022
METAR KSPD 062356Z AUTO 17008KT 04/M02 A3025 RMK AO1 SLP255 T00391017
       10106 20039 53002

Sunrise/Sunset for 12/06/2019
Burlington - 06:54:34 MST / 16:25:42 MST
Pueblo     - 07:01:01 MST / 16:38:02 MST
Lamar      - 06:52:31 MST / 16:30:31 MST

Pueblo (KPUX) 12/07/19 02:38 UTC
Radar VAD winds      Height      Dir/Spd(kt)
                   5700 FT MSL...239/010

Pueblo Aviation Discussion
Issued at 2146 UTC Friday, December  6, 2019

.AVIATION...(For the 00Z TAFS through 00Z Saturday evening)
Issued at 242 PM MST Fri Dec 6 2019
VFR conditions are expected at all three TAF sites (KALS, KCOS, and
KPUB) for the next 24 hours with generally light winds through most
of the forecast periods. Winds at KCOS and KPUB are expected to
increase to about 10 to 15 kts after about 19 or 20z.


* * * * * Northwest Colorado * * * * *

METAR KCAG 070153Z AUTO 00000KT 10SM CLR M02/M04 A3033 RMK AO2 SLP303
       T10171044
METAR KCAG 070053Z AUTO VRB04KT 10SM CLR 01/M03 A3032 RMK AO2 SLP290
       T00061033
METAR KCAG 062353Z AUTO 14003KT 10SM CLR 01/M02 A3032 RMK AO2 SLP288
       6//// T00111022 10039 20011 58002

METAR KHDN 070156Z AUTO 00000KT 10SM CLR M01/M03 A3034 RMK AO2 SLP295
       T10111028 FZRANO
METAR KHDN 070056Z AUTO 09003KT 10SM CLR 02/M03 A3033 RMK AO2 SLP282
       T00221028 FZRANO
METAR KHDN 062356Z AUTO 09004KT 10SM SCT041 03/M03 A3034 RMK AO2 SLP281
       T00331028 10044 20011 56001

METAR KSBS 070235Z AUTO 08003KT 10SM CLR M02/M03 A3031 RMK AO1
       T10191031
METAR KSBS 070215Z AUTO 00000KT 10SM CLR M02/M03 A3031 RMK AO1
       T10191031
METAR KSBS 070155Z AUTO 09003KT 10SM CLR M01/M02 A3031 RMK AO1
       T10091022

METAR KC07 070230Z AUTO 22005KT 10SM CLR A3033 RMK AO2
METAR KC07 070212Z AUTO 23007KT 10SM CLR A3033 RMK AO2
METAR KC07 070154Z AUTO 22006KT 10SM CLR A3033 RMK AO2

METAR K33V 070215Z AUTO 14008KT 10SM CLR M07/M09 A3032 RMK AO1
METAR K33V 070155Z AUTO 13006KT 10SM CLR M07/M09 A3032 RMK AO1
METAR K33V 070135Z AUTO 13006KT 10SM CLR M07/M10 A3032 RMK AO1

METAR KEEO 070153Z AUTO 06003KT 10SM CLR M02/M04 A3033 RMK AO2 SLP292
       T10171039
METAR KEEO 070053Z AUTO 00000KT 10SM CLR 01/M03 A3032 RMK AO2 SLP287
       T00061033
METAR KEEO 062353Z AUTO 19005KT 10SM OVC039 03/M03 A3032 RMK AO2 SLP281
       T00281028 10044 20017 56002

METAR K20V 070230Z AUTO 00000KT 10SM CLR M01/M04 A3034 RMK AO2
METAR K20V 070212Z AUTO 00000KT 10SM CLR M02/M03 A3033 RMK AO2
METAR K20V 070153Z AUTO 10005KT 10SM CLR M03/M05 A3033 RMK AO2

METAR KGNB 070236Z AUTO 00000KT 10SM CLR M05/M07 A3034 RMK AO2
       T10551070
METAR KGNB 070212Z AUTO 00000KT 10SM CLR M05/M07 A3034 RMK AO2
       T10491068
METAR KGNB 070154Z AUTO 00000KT 10SM CLR M04/M06 A3034 RMK AO2
       T10411064

METAR K0CO 070229Z AUTO 30032G38KT CLR M09/M17 A3032 RMK AO2 PWINO
METAR K0CO 070211Z AUTO 30029G39KT CLR M09/M18 A3032 RMK AO2 PWINO
METAR K0CO 070148Z AUTO 30034G39KT CLR M09/M17 A3031 RMK AO2 PWINO

METAR KC99 070230Z AUTO 23003KT 10SM CLR M03/M13 A3033 RMK AO2
METAR KC99 070212Z AUTO 24003KT 10SM CLR M05/M11 A3032 RMK AO2
METAR KC99 070148Z AUTO 28008KT 10SM CLR M05/M11 A3032 RMK AO2

KGJT 062340Z 0700/0724 33003KT P6SM SCT200
     FM070400 11005KT P6SM FEW200
     FM071200 VRB03KT P6SM FEW200
     FM071900 VRB03KT P6SM FEW070 SCT180
METAR KGJT 070153Z 00000KT 10SM CLR 01/M01 A3032 RMK AO2 SLP279
       T00111011
METAR KGJT 070053Z 00000KT 10SM CLR 03/00 A3032 RMK AO2 SLP277
       T00280000
METAR KGJT 062353Z 29006KT 10SM CLR 07/01 A3031 RMK AO2 SLP268 T00670006
       10100 20061 56003

KRIL 062340Z 0700/0724 VRB06KT P6SM SKC
     FM070500 00000KT P6SM FEW100 FEW250
     FM072100 VRB04KT P6SM FEW060 SCT180
METAR KRIL 070153Z AUTO 00000KT 10SM CLR 00/M03 A3034 RMK AO2 SLP288
       T00001028
METAR KRIL 070053Z AUTO 00000KT 10SM CLR 02/M02 A3033 RMK AO2 SLP283
       T00171017
METAR KRIL 062353Z AUTO 21005KT 10SM CLR 03/M01 A3033 RMK AO2 SLP279
       T00331006 10072 20033 58003

METAR K5SM 070224Z AUTO 20010KT 10SM CLR M06/M08 A3041 RMK AO2
METAR K5SM 070206Z AUTO 20010KT 10SM CLR M06/M08 A3041 RMK AO2
METAR K5SM 070147Z AUTO 20009KT 10SM CLR M06/M08 A3042 RMK AO2

KEGE 062340Z 0700/0724 25004KT P6SM FEW200
     FM070300 VRB03KT P6SM SKC
     FM071900 25005KT P6SM FEW060 FEW250
METAR KEGE 070156Z 14005KT 10SM CLR M02/M04 A3036 RMK AO2 SLP329
       T10171044 FZRANO PNO $
METAR KEGE 070056Z 09007KT 10SM CLR 00/M03 A3035 RMK AO2 SLP319
       T00001033 FZRANO PNO $
METAR KEGE 062356Z 16004KT 10SM CLR 02/M03 A3034 RMK AO2 SLP308 6////
       T00221033 10067 20017 53001 FZRANO PNO $

KASE 062340Z 0700/0724 32004KT P6SM SKC
     FM070200 19005KT P6SM FEW100
     FM070500 17005KT P6SM SKC
     FM071600 VRB03KT P6SM SKC
     FM071800 34005KT P6SM FEW120 FEW250
METAR KASE 070153Z 20006KT 10SM CLR M05/M08 A3033 RMK AO2 SLP296
       T10501083
METAR KASE 070053Z 21007KT 10SM CLR M03/M07 A3033 RMK AO2 SLP285
       T10281067
METAR KASE 062353Z 20005KT 10SM CLR M02/M07 A3033 RMK AO2 SLP277
       T10171067 10044 21017 53004

METAR KCCU 070230Z AUTO 17004KT 10SM CLR M01/M15 A3038 RMK AO2
METAR KCCU 070212Z AUTO 24012G17KT 10SM CLR M01/M15 A3038 RMK AO2
METAR KCCU 070154Z AUTO 23009G17KT 190V250 10SM CLR M02/M13 A3038 RMK
       AO2

METAR KLXV 070153Z AUTO 03008KT 10SM CLR M04/M12 A3033 RMK AO2 SLP257
       T10391117
METAR KLXV 070053Z AUTO 36007KT 10SM CLR M03/M09 A3032 RMK AO2 SLP252
       T10331094
METAR KLXV 062353Z AUTO 36008KT 10SM CLR M02/M09 A3032 RMK AO2 SLP243
       T10171094 10033 21017 53006

Sunrise/Sunset for 12/06/2019
Rangely           - 07:22:51 MST / 16:49:28 MST
Grand Junction    - 07:19:04 MST / 16:51:27 MST
Steamboat Springs - 07:16:10 MST / 16:40:29 MST

Grand Junction Aviation Discussion
Issued at 2353 UTC Friday, December  6, 2019

.AVIATION...(For the 00Z TAFS through 00Z Saturday evening)
Issued at 445 PM MST Fri Dec 6 2019
Mid level ceilings around 4K to 5K feet persist over the northern
valleys at this hour and cross sections suggesting this will
continue through the overnight. HRRR data thinks otherwise though
as RH values drop off significantly. Satellite data showing some
movement to the low clouds so gave the nod to the HRRR with some
clearing over the next few hours. KVEL will likely come back down
though as dewpoint depressions are very similar to yesterday when
fog dropped the airport to 1 1/2 miles and ceilings near 200 feet.
Outside of those areas, expect some high clouds especially down
south.


* * * * * Southwest Colorado * * * * *

METAR KAJZ 070235Z AUTO 05004KT 10SM CLR 02/M01 A3035 RMK AO2
       T00161014
METAR KAJZ 070215Z AUTO 00000KT 10SM CLR 03/M01 A3034 RMK AO2
       T00251007
METAR KAJZ 070155Z AUTO 00000KT 10SM CLR 03/M01 A3034 RMK AO2
       T00341015

KMTJ 062340Z 0700/0724 32005KT P6SM SKC
     FM070300 13005KT P6SM SKC
     FM070600 15005KT P6SM FEW250
     FM071300 VRB04KT P6SM FEW120 FEW250
METAR KMTJ 070153Z AUTO 15006KT 10SM CLR 01/M02 A3035 RMK AO2 SLP281
       T00061017
METAR KMTJ 070053Z AUTO 13004KT 10SM CLR 02/M02 A3034 RMK AO2 SLP278
       T00171017
METAR KMTJ 062353Z AUTO 25003KT 10SM CLR 06/M01 A3034 RMK AO2 SLP268
       T00611006 10083 20028 57001

METAR KGUC 070156Z AUTO 00000KT 10SM CLR M03/M06 A3039 RMK AO2 SLP332
       T10281056 FZRANO
METAR KGUC 070056Z AUTO 35006KT 10SM CLR M02/M06 A3037 RMK AO2 SLP324
       T10221056 FZRANO
METAR KGUC 062356Z AUTO 00000KT 10SM CLR 01/M05 A3036 RMK AO2 SLP313
       T00061050 10044 21022 53000 FZRANO

METAR K7BM 070230Z AUTO 30008KT 250V330 10SM CLR 01/M10 A3035 RMK
       AO2
METAR K7BM 070212Z AUTO 30005KT 10SM CLR 01/M10 A3035 RMK AO2
METAR K7BM 070148Z AUTO 28007KT 230V310 10SM CLR 02/M11 A3035 RMK
       AO2

METAR KAEJ 070235Z AUTO 00000KT 10SM CLR M05/M09 A3032 RMK AO2
       T10481090
METAR KAEJ 070215Z AUTO 00000KT 10SM CLR M03/M08 A3032 RMK AO2
       T10331084
METAR KAEJ 070155Z AUTO 00000KT 10SM CLR M02/M08 A3032 RMK AO2
       T10221078

METAR KANK 070235Z AUTO 26009KT 10SM CLR 05/M06 A3037 RMK AO1
       T00481065
METAR KANK 070215Z AUTO 25009KT 10SM CLR 05/M07 A3037 RMK AO1
       T00531071
METAR KANK 070155Z AUTO 26011G14KT 10SM CLR 05/M07 A3037 RMK AO1 T00511070

METAR KMYP 070230Z AUTO 24024KT 10SM CLR M06/M09 A3050 RMK AO2
METAR KMYP 070212Z AUTO 25024KT 10SM CLR M06/M09 A3050 RMK AO2
METAR KMYP 070147Z AUTO 24025KT 10SM CLR M07/M10 A3050 RMK AO2

METAR KAIB 070235Z AUTO 11008KT 10SM BKN036 01/00 A3038 RMK AO2
METAR KAIB 070215Z AUTO 11008KT 10SM SCT036 01/00 A3038 RMK AO2
METAR KAIB 070155Z AUTO 11006KT 10SM OVC036 01/00 A3037 RMK AO2

KTEX 062340Z 0700/0724 26006KT P6SM SKC
     FM070400 15006KT P6SM FEW100 FEW250
     FM071800 22007KT P6SM FEW070 FEW250
METAR KTEX 070235Z AUTO 00000KT 10SM CLR M02/M04 A3039 RMK AO2
METAR KTEX 070215Z AUTO 00000KT 10SM CLR M01/M04 A3039 RMK AO2
METAR KTEX 070155Z AUTO 15005KT 10SM CLR M01/M03 A3037 RMK AO2

METAR K04V 070230Z AUTO 33005KT 10SM CLR M04/M06 A3039 RMK AO2
METAR K04V 070212Z AUTO 32006KT 10SM CLR M03/M06 A3038 RMK AO2
METAR K04V 070154Z AUTO 32007KT 10SM CLR M03/M06 A3039 RMK AO2

METAR KCEZ 070153Z AUTO 06006KT 10SM CLR M01/M02 A3035 RMK AO2 SLP294
       T10061017
METAR KCEZ 070053Z AUTO 00000KT 9SM CLR 00/M01 A3034 RMK AO2 SLP290
       T00001011
METAR KCEZ 062353Z AUTO 00000KT 10SM CLR 04/01 A3034 RMK AO2 SLP280
       T00390011 10089 20017 55000

KDRO 062340Z 0700/0724 04004KT P6SM SCT200
     FM071800 22005KT P6SM FEW200
METAR KDRO 070153Z AUTO 02007KT 10SM CLR 01/M03 A3036 RMK AO2 SLP316
       T00061028
METAR KDRO 070053Z AUTO 08004KT 10SM CLR 00/M02 A3035 RMK AO2 SLP315
       T00001022
METAR KDRO 062353Z AUTO 12004KT 10SM CLR 04/M02 A3035 RMK AO2 SLP303
       T00391022 10061 20011 53001

METAR KPSO 070235Z AUTO 00000KT 10SM CLR M03/M03 A3038 RMK AO2
       T10271029
METAR KPSO 070215Z AUTO 00000KT 10SM CLR M02/M03 A3038 RMK AO2
       T10251030
METAR KPSO 070155Z AUTO 00000KT 10SM CLR M03/M03 A3038 RMK AO2
       T10301034

METAR KCPW 070229Z AUTO 00000KT 10SM CLR M01/M16 A3049 RMK AO2
METAR KCPW 070211Z AUTO 00000KT 10SM CLR M01/M15 A3049 RMK AO2
METAR KCPW 070148Z AUTO 26004KT 10SM CLR M01/M15 A3049 RMK AO2

KALS 062321Z 0700/0724 VRB06KT P6SM FEW250
     FM070400 VRB04KT P6SM SKC
     FM071800 22007KT P6SM SCT200
METAR KALS 070152Z AUTO 28003KT 10SM CLR M03/M06 A3036 RMK AO2 SLP327
       T10281056
METAR KALS 070052Z AUTO 26003KT 10SM CLR M01/M06 A3035 RMK AO2 SLP316
       T10111056
METAR KALS 062352Z AUTO 21004KT 10SM CLR 01/M06 A3034 RMK AO2 SLP304
       T00061056 10044 20006 51002

Sunrise/Sunset for 12/06/2019
Vail    - 07:11:52 MST / 16:41:05 MST
Durango - 07:11:22 MST / 16:53:40 MST
Alamosa - 07:03:52 MST / 16:45:12 MST

Grand Junction Aviation Discussion
Issued at 2353 UTC Friday, December  6, 2019

.AVIATION...(For the 00Z TAFS through 00Z Saturday evening)
Issued at 445 PM MST Fri Dec 6 2019
Mid level ceilings around 4K to 5K feet persist over the northern
valleys at this hour and cross sections suggesting this will
continue through the overnight. HRRR data thinks otherwise though
as RH values drop off significantly. Satellite data showing some
movement to the low clouds so gave the nod to the HRRR with some
clearing over the next few hours. KVEL will likely come back down
though as dewpoint depressions are very similar to yesterday when
fog dropped the airport to 1 1/2 miles and ceilings near 200 feet.
Outside of those areas, expect some high clouds especially down
south.


* * * * * Arizona * * * * *

KPGA 070141Z 0702/0724 VRB04KT P6SM BKN040 BKN200
METAR KPGA 070153Z AUTO 00000KT 10SM CLR 07/03 A3030 RMK AO2 SLP254
       T00720033 TSNO
METAR KPGA 070053Z AUTO 00000KT 10SM OVC044 09/04 A3029 RMK AO2 SLP249
       T00890044 TSNO

METAR KRQE 070153Z AUTO 00000KT 10SM CLR 02/M01 A3035 RMK AO2 SLP266
       T00171011
METAR KRQE 070053Z AUTO 09007KT 10SM CLR 04/00 A3034 RMK AO2 SLP259
       T00390000

Flagstaff (KFSX) 12/07/19 02:33 UTC
Radar VAD winds      Height      Dir/Spd(kt)
                  11000 FT MSL...217/012
                   9000 FT MSL...157/014
                   8500 FT MSL...225/008
                   8100 FT MSL...178/012
                   8000 FT MSL...169/010
                   7800 FT MSL...174/010

Flagstaff Aviation Discussion
Issued at 2210 UTC Friday, December  6, 2019

.AVIATION...For the 00Z package...VFR conditions are expected for
northern Arizona for the next 24 hours with daytime southwest winds
generally less 10 knots. Aviation discussion not updated for TAF
amendments.


* * * * * Utah * * * * *

KSLC 070201Z 0702/0806 29006KT 1/4SM FG VV002
     FM070300 15004KT 1/4SM FG VV002
     FM071200 15007KT 4SM BR SCT030 BKN070
     FM071800 16010KT 3SM BR VCSH SCT010 BKN050
SPECI KSLC 070233Z 26005KT 1/8SM R16L/2000V2600FT FG VV002 01/01 A3021
       RMK AO2 T00110011
METAR KSLC 070154Z 25004KT 1/8SM R16L/1200FT FG VV002 01/01 A3021 RMK
       AO2 SLP238 T00110011
SPECI KSLC 070146Z 27004KT 1/8SM R16L/1200V1600FT FG VV002 01/01 A3021
       RMK AO2 T00110011

KVEL 062340Z 0700/0724 35003KT P6SM SCT009 OVC045
     FM070400 00000KT 2SM BR OVC030
     FM070600 00000KT 1/2SM FG VV002
     FM071500 00000KT P6SM VCFG BKN040
     FM071600 VRB03KT P6SM SCT019 BKN045
METAR KVEL 070153Z AUTO 00000KT 9SM OVC042 03/01 A3032 RMK AO2 SLP280
       T00280006
METAR KVEL 070053Z AUTO 00000KT 10SM OVC042 03/01 A3032 RMK AO2 SLP278
       T00330006
METAR KVEL 062353Z AUTO 04003KT 10SM OVC042 03/01 A3032 RMK AO2 SLP278
       T00330006 10039 20017 58004

METAR KPUC 070153Z AUTO 06006KT 10SM OVC030 03/01 A3032 RMK AO2 SLP289
       T00330011
METAR KPUC 070053Z AUTO 04003KT 10SM OVC031 03/02 A3032 RMK AO2 SLP290
       T00330017

KCNY 062340Z 0700/0724 29003KT P6SM FEW090
     FM070200 VRB02KT P6SM BKN060
     FM071000 VRB02KT P6SM SCT060 SCT100
     FM071600 VRB03KT P6SM SCT070 BKN150
     FM071800 VRB03KT P6SM FEW070 SCT180
     FM072200 VRB03KT P6SM BKN150
METAR KCNY 070153Z AUTO 30005KT 10SM OVC048 05/04 A3031 RMK AO2 SLP274
       T00500039
METAR KCNY 070053Z AUTO 00000KT 10SM OVC047 04/03 A3030 RMK AO2 SLP272
       T00440028
METAR KCNY 062353Z AUTO 30005KT 10SM CLR 05/03 A3030 RMK AO2 SLP270
        T00500028 10100 20050 55002


Salt Lake City (KMTX) 12/07/19 02:31 UTC
Radar VAD winds      Height      Dir/Spd(kt)
                  20000 FT MSL...284/014
                  19000 FT MSL...007/002
                  17000 FT MSL...006/003
                  16000 FT MSL...299/009
                  15500 FT MSL...025/004
                  15000 FT MSL...359/003
                  14000 FT MSL...005/004
                  13600 FT MSL...018/002
                  13000 FT MSL...204/068
                  12100 FT MSL...050/004
                  12000 FT MSL...293/008
                   9000 FT MSL...001/001
                   9000 FT MSL...207/019
                   8300 FT MSL...283/008
                   8000 FT MSL...198/016
                   7600 FT MSL...281/023
                   7100 FT MSL...174/013
                   7000 FT MSL...159/005
                   6900 FT MSL...156/006

Salt Lake City Aviation Discussion
Issued at 2231 UTC Friday, December  6, 2019

.AVIATION...LIFR conditions from GSL fog likely to be predominant
at the SLC Terminal through the day and into evening, with
periods of IFR possible with BCFG. WNW winds should switch to
light drainage SE between 02-03z. There is a 30% chance of
conditions improving to MVFR after 06z.


* * * * * Wyoming * * * * *

KEVW 062328Z 0700/0724 14006KT P6SM FEW120
     FM070300 21008KT P6SM SCT010 BKN035=
METAR KEVW 070153Z AUTO 09008KT 10SM CLR M03/M06 A3023 RMK AO2 SLP253
       T10281061
METAR KEVW 070053Z AUTO 09008KT 10SM CLR M02/M06 A3023 RMK AO2 SLP246
       T10171056
METAR KEVW 062353Z AUTO 10007KT 10SM CLR 00/M05 A3023 RMK AO2 SLP242
       T00001050 10022 20000 58008

KRKS 062332Z 0700/0724 24007KT P6SM SCT045 BKN150
     FM071800 25010KT P6SM SCT100
METAR KRKS 070154Z AUTO 00000KT 10SM CLR M02/M04 A3025 RMK AO2 SLP271
       T10171044
METAR KRKS 070054Z AUTO 00000KT 10SM CLR M01/M05 A3025 RMK AO2 SLP269
       T10111050
METAR KRKS 062354Z AUTO 31004KT 10SM CLR M02/M04 A3027 RMK AO2 SLP277
       T10171044 10011 21022 56007

KRWL 062352Z 0700/0724 23015G25KT P6SM SKC
     FM070100 24013KT P6SM SKC
     FM071100 23015G25KT P6SM SKC
     FM071600 24020G35KT P6SM SKC
METAR KRWL 070153Z AUTO 25006KT 10SM CLR M01/M05 A3026 RMK AO2 SLP256
       T10061050
METAR KRWL 070053Z AUTO 00000KT 10SM CLR 00/M04 A3025 RMK AO2 SLP253
       T00001039
METAR KRWL 062353Z AUTO 20006KT 10SM CLR 00/M03 A3026 RMK AO2 PK WND
       24026/2303 SLP256 T00001028 10017 20000 53003

KLAR 062352Z 0700/0724 20010KT P6SM SKC
     FM071400 23015KT P6SM SKC
     FM071700 25020G35KT P6SM SKC
METAR KLAR 070153Z AUTO 23012KT 10SM CLR M03/M08 A3022 RMK AO2 SLP260
       T10331078
METAR KLAR 070053Z AUTO 23008KT 10SM CLR M02/M07 A3022 RMK AO2 SLP259
       T10221072
METAR KLAR 062353Z AUTO 22016KT 10SM CLR 00/M06 A3022 RMK AO2 SLP252
       T00001061 10028 20000 51003

KCYS 062352Z 0700/0724 26011KT P6SM SKC
     FM071500 26015KT P6SM SKC
     FM071800 28015G25KT P6SM SKC
     FM072000 28020G30KT P6SM SKC
METAR KCYS 070153Z 23004KT 10SM CLR 03/M06 A3020 RMK AO2 SLP250
       T00281056
METAR KCYS 070053Z 22007KT 10SM CLR 03/M06 A3020 RMK AO2 SLP249 T00331056
METAR KCYS 062353Z 23011KT 10SM CLR 05/M06 A3020 RMK AO2 SLP244
       T00501056 10083 20050 53000

Riverton (KRIW) 12/07/19 02:35 UTC
Radar VAD winds      Height      Dir/Spd(kt)
                  14000 FT MSL...120/002
                   8100 FT MSL...244/003
                   8000 FT MSL...306/001

Cheyenne (KCYS) 12/07/19 02:36 UTC
Radar VAD winds      Height      Dir/Spd(kt)
                   9000 FT MSL...278/040
                   8000 FT MSL...263/019

Riverton Aviation Discussion
Issued at 2311 UTC Friday, December  6, 2019

.AVIATION...(For the 00Z TAFS through 00Z Saturday evening)
Issued at 355 PM MST Fri Dec 6 2019
Most sites will be at VFR conditions overnight and Saturday morning.
The exception will again be at KBPI and KPNA which will likely see
fog develop overnight. Gusty winds will continue at KCOD and KCPR
through the period. Gusts of 20 to 30 knots are expected at KCPR
before 12z Saturday, with gusts after 12z approaching 50 knots. Snow
will move into the far west after 18z, mainly impacting KJAC in this
period.

Cheyenne Aviation Discussion
Issued at 0046 UTC Saturday, December  7, 2019

.AVIATION...(For the 00Z TAFS through 00Z Saturday evening)
Issued at 453 PM MST Fri Dec 6 2019
VFR conditions across all terminals with west winds 10 kts or less
across all sites under generally clear skies, except KRWL which
will gust up to 25 kts through 07/01Z. West winds increase between
07/11-14Z across southeast Wyoming, and after 07/17Z across the
Panhandle. While the gap regions could see stronger gusts,
terminals will see gusts up to about 35 kts at the Wyoming sites.
Winds at 10K feet will be around 60 kts out of the W and Nw.
expect turbulence near mountain terrain.


* * * * * Nebraska * * * * *

METAR KIBM 070235Z AUTO 25007KT 10SM CLR M01/M02 A3020 RMK AO2
       T10081021
METAR KIBM 070215Z AUTO 24003KT 10SM CLR 00/M02 A3020 RMK AO2
       T10051018
METAR KIBM 070155Z AUTO 24003KT 10SM CLR 00/M01 A3020 RMK AO2
       T10011014

KSNY 062352Z 0700/0724 23009KT P6SM SKC
     FM070200 26009KT P6SM SKC
     FM071700 27013KT P6SM SKC

METAR KOGA 070235Z AUTO 00000KT 10SM CLR 00/00 A3020 RMK AO2
       T10011003
METAR KOGA 070215Z AUTO 00000KT 10SM CLR 00/M01 A3022 RMK AO2
       T00011006
METAR KOGA 070155Z AUTO 25003KT 10SM CLR 01/00 A3022 RMK AO2
       T00101001

METAR KIML 070153Z AUTO 20008KT 10SM CLR 03/M01 A3021 RMK AO2 SLP254
       T00331011
METAR KIML 070053Z AUTO 17006KT 10SM CLR 01/M03 A3021 RMK AO2 SLP258
       T00061033
METAR KIML 062353Z AUTO 10SM CLR 02/M03 A3022 RMK AO2 SLP257 T00221028
       10067 21006 58006

KMCK 062328Z 0700/0724 19008KT P6SM SKC
     FM071900 20014KT P6SM SKC
     FM072300 VRB06KT P6SM SKC
METAR KMCK 070153Z AUTO 20007KT 10SM CLR 01/M02 A3024 RMK AO2 SLP264
       T00111022
METAR KMCK 070053Z AUTO 20006KT 10SM CLR 01/M03 A3024 RMK AO2 SLP264
       T00061028
METAR KMCK 062353Z AUTO 18005KT 10SM CLR 03/M02 A3025 RMK AO2 SLP263
       T00331017 10078 20022 58008

North Platte (KLNX) 12/07/19 02:36 UTC
Radar VAD winds      Height      Dir/Spd(kt)
                   6000 FT MSL...277/020
                   5000 FT MSL...278/028
                   4100 FT MSL...207/014
                   4000 FT MSL...253/030
                   4000 FT MSL...251/030
                   3400 FT MSL...178/025

North Platte Aviation Discussion
Issued at 2339 UTC Friday, December  6, 2019

.AVIATION...(For the 00Z TAFS through 00Z Saturday evening)
Issued at 537 PM CST Fri Dec 6 2019
VFR conditions should prevail the next 24 hours across western
Nebraska. Skies are currently clear throughout western Nebraska.
Some high clouds are currently moving across Idaho and Montana to
bring a few high clouds to the area for Saturday. Winds will be
light southwest overnight, then increase to 22015G23KT at KVTN by
20Z Saturday. Patchy fog is possible in low lying areas late
tonight and early Saturday. Mesoscale models do not indicate this
should occur, so no mention in the 00Z TAF issuance.


* * * * * Kansas * * * * *

KGLD 062328Z 0700/0724 20008KT P6SM SKC
     FM071800 20014KT P6SM SKC
     FM072300 VRB06KT P6SM SKC
METAR KGLD 070153Z AUTO 20009KT 10SM CLR 01/M01 A3024 RMK AO2 SLP261
       T00111006
METAR KGLD 070053Z AUTO 20009KT 10SM CLR 01/M01 A3023 RMK AO2 SLP260
       T00111006
METAR KGLD 062353Z AUTO 19009KT 10SM CLR 02/M01 A3024 RMK AO2 SLP259
       T00221011 10072 21006 56004

KGCK 062320Z 0700/0724 19005KT P6SM SKC
     FM071800 19016G24KT P6SM SKC
     FM072300 18013G18KT P6SM SKC
METAR KGCK 070154Z 19005KT 10SM CLR M01/M04 A3030 RMK AO2 SLP283
       T10111039
METAR KGCK 070054Z 19006KT 10SM CLR 00/M03 A3030 RMK AO2 SLP281
       T00001028
METAR KGCK 062354Z 18006KT 10SM CLR 02/M03 A3030 RMK AO2 SLP278
       T00171028 10078 20017 56003

METAR KLBL 070156Z AUTO 14004KT 10SM CLR 01/M03 A3033 RMK AO2 SLP288
       T00061028 FZRANO
METAR KLBL 070056Z AUTO 10SM CLR 02/M02 A3032 RMK AO2 SLP285 T00171017
       FZRANO
METAR KLBL 062356Z AUTO 15006KT 10SM CLR 03/M02 A3032 RMK AO2 SLP283
       T00331017 10072 20028 55001

METAR KEHA 070235Z AUTO 17010KT 7SM CLR 01/01 A3028 RMK AO2
       T00130008
METAR KEHA 070215Z AUTO 17008KT 7SM CLR 01/01 A3029 RMK AO2
       T00130007
METAR KEHA 070155Z AUTO 17009KT 7SM CLR 02/01 A3029 RMK AO2
       T00160010

Goodland (KGLD) 12/07/19 02:29 UTC
Radar VAD winds      Height      Dir/Spd(kt)
                   6000 FT MSL...188/038
                   4700 FT MSL...196/036

Dodge City (KDDC) 12/07/19 02:33 UTC
Radar VAD winds      Height      Dir/Spd(kt)
                  14000 FT MSL...115/002
                  13900 FT MSL...127/002
                  10000 FT MSL...103/002
                   9700 FT MSL...216/002
                   8200 FT MSL...053/004
                   7000 FT MSL...100/007
                   7000 FT MSL...100/007
                   6000 FT MSL...238/010
                   6000 FT MSL...214/008
                   5100 FT MSL...141/003
                   5000 FT MSL...213/003
                   4300 FT MSL...175/004
                   3700 FT MSL...150/006

Goodland Aviation Discussion
Issued at 0022 UTC Saturday, December  7, 2019

.AVIATION...(For the 00Z TAFS through 00Z Saturday evening)
Issued at 520 PM MST Fri Dec 6 2019
VFR conditions /mostly clear skies/ are anticipated to prevail
through the TAF period. Winds will remain S-SSW at 5-10 knots
through Saturday morning, increasing to 10-15 knots Saturday
afternoon -- becoming light/variable AOA sunset Saturday evening.

Dodge City Aviation Discussion
Issued at 2313 UTC Friday, December  6, 2019

.AVIATION...(For the 00Z TAFS through 00Z Saturday evening)
Issued at 512 PM CST Fri Dec 6 2019
VFR conditions will prevail overnight with skies becoming mostly
clear. Winds will generally be from a southerly direction gusting
to over 25 knots by late morning tomorrow.


* * * * * Texas/Oklahoma * * * * *

KGUY 062323Z 0700/0724 18006KT P6SM BKN300
     FM071700 20017G27KT P6SM SCT300=
METAR KGUY 070153Z AUTO 19005KT 10SM CLR 01/M01 A3031 RMK AO2 SLP273
       T00111011
METAR KGUY 070053Z AUTO 18004KT 10SM CLR 02/M01 A3031 RMK AO2 SLP272
       T00221006
METAR KGUY 062353Z AUTO 17004KT 10SM CLR 03/00 A3031 RMK AO2 SLP272
       T00330000 10061 20006 53000

KDHT 062323Z 0700/0724 17007KT P6SM BKN300
     FM070700 21007KT P6SM BKN300
     FM071800 21018G28KT P6SM SCT300

Amarillo (KAMA) 12/07/19 02:34 UTC
Radar VAD winds      Height      Dir/Spd(kt)
                  28000 FT MSL...275/060
                  26000 FT MSL...273/058
                  25000 FT MSL...271/054
                  24000 FT MSL...276/052
                  22000 FT MSL...279/044
                  16000 FT MSL...277/030
                  12000 FT MSL...298/003
                  11600 FT MSL...267/004
                  11000 FT MSL...243/009
                  10000 FT MSL...271/008
                   9900 FT MSL...270/008
                   9000 FT MSL...277/009
                   8200 FT MSL...275/016
                   8000 FT MSL...266/019
                   7000 FT MSL...247/021
                   6500 FT MSL...270/014
                   6000 FT MSL...248/022
                   4600 FT MSL...212/019
                   4000 FT MSL...162/016
                   4000 FT MSL...165/015

Amarillo Aviation Discussion
Issued at 2332 UTC Friday, December  6, 2019

.AVIATION...
For the 00Z TAFs, a surface trof of low pressure is forecast to
develop over ern CO and ern NM by late Saturday morning. This will
result in an increase in southwest winds, gusty at times, from
late Saturday morning through the afternoon hours at KGUY, KDHT,
and KAMA. Periods of high level clouds are also anticipated durg
this fcst cycle.
02


* * * * * New Mexico * * * * *

KFMN 062321Z 0700/0724 VRB06KT P6SM BKN200
     FM070600 09008KT P6SM BKN200
     FM071900 VRB06KT P6SM SCT150 SCT250
     FM072300 29006KT P6SM SCT150 SCT250
METAR KFMN 070153Z 07003KT 10SM CLR 01/M02 A3033 RMK AO2 SLP293
       T00111017
METAR KFMN 070053Z 00000KT 10SM CLR 05/00 A3033 RMK AO2 SLP282
       T00500000
METAR KFMN 062353Z 11003KT 10SM CLR 07/00 A3032 RMK AO2 SLP279 T00670000
        10089 20033 56003

METAR KSKX 070156Z AUTO 10004KT 10SM CLR M02/M04 A3038 RMK AO2 SLP329
       T10221039 FZRANO
METAR KSKX 070056Z AUTO 10004KT 10SM CLR M01/M03 A3036 RMK AO2 SLP321
       T10111033 FZRANO
METAR KSKX 062356Z AUTO 14003KT 10SM CLR 03/M03 A3036 RMK AO2 SLP306
       T00281028 10056 20017 58001

KLVS 062321Z 0700/0724 19012KT P6SM BKN200
     FM070200 14007KT P6SM BKN150
     FM071500 22012KT P6SM SCT150 SCT250
     FM072000 25015G22KT P6SM SCT150 SCT250
     FM072300 23008KT P6SM BKN200
METAR KLVS 070153Z AUTO 35004KT 10SM CLR 02/M03 A3029 RMK AO2 SLP251
       T00221033
METAR KLVS 070053Z AUTO 15008KT 10SM CLR 02/M04 A3028 RMK AO2 SLP249
        T00171039
METAR KLVS 062353Z AUTO 15011KT 10SM CLR 03/M04 A3026 RMK AO2 SLP244
       T00281039 10089 20028 56000

METAR KRTN 070153Z AUTO 36004KT 10SM CLR 01/M02 A3028 RMK AO2 SLP265
       T00111022
METAR KRTN 070053Z AUTO 34006KT 10SM CLR 02/M02 A3027 RMK AO2 SLP259
       T00171017
METAR KRTN 062353Z AUTO 01006KT 10SM CLR 04/M01 A3026 RMK AO2 SLP249
       T00391011 10089 20039 53002

METAR KCAO 070155Z AUTO 20009KT 10SM CLR 01/M02 A3027 RMK AO2 SLP276
       T00111017
METAR KCAO 070055Z AUTO 18009KT 10SM CLR 03/M01 A3026 RMK AO2 SLP265
       T00281011

Albuquerque (KABX) 12/07/19 02:32 UTC
Radar VAD winds      Height      Dir/Spd(kt)
                  15000 FT MSL...016/001
                  11000 FT MSL...300/004
                   9000 FT MSL...042/007
                   6900 FT MSL...357/002

Albuquerque Aviation Discussion
Issued at 2325 UTC Friday, December  6, 2019

.AVIATION...
00Z TAF CYCLE
Considerable high clouds will move from west to east over NM. The
clouds may thin out some aft 07/12Z but increase again by 07/23Z.
Surface lee trough strengthening aft 07/12Z.

* * * * * Winds and Temperatures Aloft Forecasts * * * * *

DATA BASED ON 070000Z
VALID 070600Z   FOR USE 0500-0900Z. TEMPS NEG ABV 24000
FT  3000    6000   9000    12000   18000   24000  30000  34000  39000
SLC      1813    2127+01 2132-03 2333-16 2438-28 255944 266353 267463
BCE                      2129+00 2326-15 2430-26 254643 264952 265962
LND              2517+04 2520-01 2628-18 2636-29 275945 276555 288565
RKS              2212    2420-01 2630-18 2631-28 275844 276354 277764
GJT              2211-01 2322-01 2623-16 2724-26 264643 274753 276763
FMN              2307+02 2513+00 2617-15 2616-25 274441 275451 267860
ABQ              2608+04 2710+02 2619-14 2735-25 276439 278049 269360
MBW              2630    2822-02 2924-17 2828-29 295545 296555 297964
DEN              2509+03 2916-01 3026-17 2928-28 295644 296353 297263
PUB              2907+05 2812+00 3024-16 3031-27 295242 296052 287962
ALS                      2812+01 2924-16 3026-26 284342 286051 277761
TCC      2319    2907+05 2909+02 2826-14 2940-26 287039 288549 279859
BFF      2820    2515+01 2818-04 2922-16 3036-29 304846 306456 307364
GLD      2311    9900+02 3115-03 3023-16 3032-29 315245 316954 307761
GCK      2414+05 2705+02 3214-02 3031-17 3137-28 315644 306952 298562
GAG      2609+05 2809+01 3017-01 3034-15 2949-28 306842 298150 299061
AMA      2420    3207+04 2915+02 2929-15 2946-26 296940 299049 780360
---------------------------------------------------------------------

DATA BASED ON 070000Z
VALID 071200Z   FOR USE 0900-1800Z. TEMPS NEG ABV 24000
FT  3000    6000   9000    12000   18000   24000  30000  34000  39000
SLC      2012    2127-03 2232-05 2344-17 2452-28 256843 247053 247863
BCE                      2532-03 2534-15 2539-26 254342 244253 266361
LND              2631+00 2537-01 2437-16 2536-28 265845 266954 268165
RKS              2512    2529-04 2440-16 2543-28 265744 266553 267364
GJT              2316-01 2430-03 2431-16 2541-27 264043 263752 265162
FMN              2409+02 2519-01 2424-15 2635-25 263842 264852 265858
ABQ              2612+05 2616+01 2628-15 2737-25 275341 276151 277457
MBW              2534    2633-01 2636-17 2641-28 275644 276254 287365
DEN              2711+06 2721+01 2827-17 2631-27 284944 284753 285563
PUB              2514+06 2717+01 2826-16 2621-26 284143 284253 285262
ALS                      2516+01 2624-16 2624-25 273543 274052 275460
TCC      2323    2513+07 2614+02 2722-15 2836-25 284741 277151 277958
BFF      2521    2423+02 2825-01 2830-17 2737-28 285845 286754 297765
GLD      2113    2614+04 2821-01 2825-16 2931-28 305343 295854 296363
GCK      2116+06 2610+05 2917-01 2925-15 3029-27 305143 295553 296563
GAG      2410+05 2411+03 2916+00 2929-15 3029-26 304742 295652 287161
AMA      2422    2312+05 2816+02 2827-15 2923-25 284641 286751 288060
---------------------------------------------------------------------

DATA BASED ON 070000Z
VALID 080000Z   FOR USE 1800-0500Z. TEMPS NEG ABV 24000
FT  3000    6000   9000    12000   18000   24000  30000  34000  39000
SLC      2106    2219-03 2519-06 2543-20 2558-32 258845 259754 259559
BCE                      2534-05 2642-16 2560-28 257542 760152 760261
LND              2730+01 2835-05 2739-19 2663-32 258446 259154 258961
RKS              2628    2727-07 2644-19 2559-32 258545 259254 268859
GJT              2317+00 2525-06 2639-17 2657-28 266943 267954 279060
FMN              2715+03 2731-03 2745-15 2755-27 277941 780451 770561
ABQ              2820+06 2832+00 2845-13 2747-26 288140 289249 770261
MBW              2651    2844-04 2753-16 2660-28 245344 267054 267062
DEN              2831+03 2931-01 2922-15 2735-28 275744 266154 277464
PUB              2927+06 3022+00 2824-14 2742-27 275743 276854 278561
ALS                      2837-02 2736-13 2748-26 275742 277052 288760
TCC      2634    2927+08 2932+01 2833-14 2841-24 286440 287651 289259
BFF      2850    2933+03 2828-01 2733-16 2747-30 265945 267055 267663
GLD      3120    2619+06 2523+00 2532-16 2639-27 274643 265254 275962
GCK      2327+10 2421+08 2522+01 2528-16 2731-26 284242 284853 286160
GAG      2431+10 2522+08 2420+02 2628-15 2737-26 284542 285352 286659
AMA      2334    2730+08 2730+02 2832-13 2739-26 296540 287751 287658
---------------------------------------------------------------------

This product is updated automatically at approximately 10, 30 and 50
minutes after each hour, 24 hours per day, 7 days per week.  It may
become unavailable at times due to system outages without prior notice.
Users are advised to check the time at the top of the product to ensure
that it is current.  Furthermore, content and format of the product are
subject to change without prior notice.

Comments and suggestions are welcome and should be directed to one of
the addresses or phone numbers shown at the bottom of this page.  In
order to expedite a response to comments or suggestions, be sure to
mention your interest in the hot-air balloon forecast.


USA.gov is the U.S. government's official web portal to all federal, state and local government web resources and services.